sensor_id;sensor_type;location;lat;lon;timestamp;P1;durP1;ratioP1;P2;durP2;ratioP2
41755;SDS011;27435;48.480;9.258;2022-11-20T00:00:25;2.40;;;1.40;;
41755;SDS011;27435;48.480;9.258;2022-11-20T00:02:50;3.30;;;1.70;;
41755;SDS011;27435;48.480;9.258;2022-11-20T00:05:16;3.43;;;1.93;;
41755;SDS011;27435;48.480;9.258;2022-11-20T00:07:42;2.63;;;1.27;;
41755;SDS011;27435;48.480;9.258;2022-11-20T00:10:07;3.13;;;1.70;;
41755;SDS011;27435;48.480;9.258;2022-11-20T00:12:33;3.00;;;1.73;;
41755;SDS011;27435;48.480;9.258;2022-11-20T00:14:59;3.87;;;2.00;;
41755;SDS011;27435;48.480;9.258;2022-11-20T00:17:24;4.03;;;2.40;;
41755;SDS011;27435;48.480;9.258;2022-11-20T00:19:50;3.83;;;1.93;;
41755;SDS011;27435;48.480;9.258;2022-11-20T00:22:16;5.03;;;2.30;;
41755;SDS011;27435;48.480;9.258;2022-11-20T00:24:41;6.97;;;2.57;;
41755;SDS011;27435;48.480;9.258;2022-11-20T00:27:07;5.93;;;2.63;;
41755;SDS011;27435;48.480;9.258;2022-11-20T00:29:32;5.07;;;3.13;;
41755;SDS011;27435;48.480;9.258;2022-11-20T00:31:58;5.03;;;2.90;;
41755;SDS011;27435;48.480;9.258;2022-11-20T00:34:23;4.60;;;2.40;;
41755;SDS011;27435;48.480;9.258;2022-11-20T00:36:49;6.63;;;2.43;;
41755;SDS011;27435;48.480;9.258;2022-11-20T00:39:15;5.43;;;2.40;;
41755;SDS011;27435;48.480;9.258;2022-11-20T00:41:40;6.90;;;2.63;;
41755;SDS011;27435;48.480;9.258;2022-11-20T00:44:06;3.90;;;2.20;;
41755;SDS011;27435;48.480;9.258;2022-11-20T00:46:31;6.83;;;2.27;;
41755;SDS011;27435;48.480;9.258;2022-11-20T00:48:57;4.17;;;2.70;;
41755;SDS011;27435;48.480;9.258;2022-11-20T00:51:24;3.83;;;2.40;;
41755;SDS011;27435;48.480;9.258;2022-11-20T00:53:50;4.50;;;2.53;;
41755;SDS011;27435;48.480;9.258;2022-11-20T00:56:17;5.23;;;2.87;;
41755;SDS011;27435;48.480;9.258;2022-11-20T00:58:44;5.17;;;2.80;;
41755;SDS011;27435;48.480;9.258;2022-11-20T01:01:12;5.10;;;3.17;;
41755;SDS011;27435;48.480;9.258;2022-11-20T01:03:48;6.17;;;2.87;;
41755;SDS011;27435;48.480;9.258;2022-11-20T01:06:19;7.30;;;3.37;;
41755;SDS011;27435;48.480;9.258;2022-11-20T01:08:45;6.20;;;3.20;;
41755;SDS011;27435;48.480;9.258;2022-11-20T01:11:13;7.27;;;3.70;;
41755;SDS011;27435;48.480;9.258;2022-11-20T01:13:41;7.53;;;3.70;;
41755;SDS011;27435;48.480;9.258;2022-11-20T01:16:08;7.67;;;4.03;;
41755;SDS011;27435;48.480;9.258;2022-11-20T01:18:36;8.17;;;3.50;;
41755;SDS011;27435;48.480;9.258;2022-11-20T01:21:08;7.70;;;3.30;;
41755;SDS011;27435;48.480;9.258;2022-11-20T01:23:36;6.33;;;3.27;;
41755;SDS011;27435;48.480;9.258;2022-11-20T01:26:04;4.60;;;2.83;;
41755;SDS011;27435;48.480;9.258;2022-11-20T01:28:31;10.10;;;3.90;;
41755;SDS011;27435;48.480;9.258;2022-11-20T01:30:57;7.47;;;3.23;;
41755;SDS011;27435;48.480;9.258;2022-11-20T01:33:23;7.73;;;3.73;;
41755;SDS011;27435;48.480;9.258;2022-11-20T01:35:49;6.80;;;3.17;;
41755;SDS011;27435;48.480;9.258;2022-11-20T01:38:16;5.37;;;3.27;;
41755;SDS011;27435;48.480;9.258;2022-11-20T01:40:41;7.07;;;3.30;;
41755;SDS011;27435;48.480;9.258;2022-11-20T01:43:14;10.03;;;4.00;;
41755;SDS011;27435;48.480;9.258;2022-11-20T01:45:58;6.67;;;3.23;;
41755;SDS011;27435;48.480;9.258;2022-11-20T01:48:44;7.77;;;3.23;;
41755;SDS011;27435;48.480;9.258;2022-11-20T01:51:29;6.40;;;3.30;;
41755;SDS011;27435;48.480;9.258;2022-11-20T01:54:19;5.53;;;3.07;;
41755;SDS011;27435;48.480;9.258;2022-11-20T01:57:00;6.50;;;3.60;;
41755;SDS011;27435;48.480;9.258;2022-11-20T01:59:28;4.97;;;3.00;;
41755;SDS011;27435;48.480;9.258;2022-11-20T02:01:55;7.77;;;3.27;;
41755;SDS011;27435;48.480;9.258;2022-11-20T02:04:20;5.97;;;2.83;;
41755;SDS011;27435;48.480;9.258;2022-11-20T02:07:00;6.40;;;2.77;;
41755;SDS011;27435;48.480;9.258;2022-11-20T02:09:27;5.23;;;2.53;;
41755;SDS011;27435;48.480;9.258;2022-11-20T02:11:53;4.60;;;2.30;;
41755;SDS011;27435;48.480;9.258;2022-11-20T02:14:20;5.00;;;1.90;;
41755;SDS011;27435;48.480;9.258;2022-11-20T02:16:47;6.37;;;2.23;;
41755;SDS011;27435;48.480;9.258;2022-11-20T02:19:24;5.97;;;2.27;;
41755;SDS011;27435;48.480;9.258;2022-11-20T02:24:18;5.00;;;2.20;;
41755;SDS011;27435;48.480;9.258;2022-11-20T02:26:50;4.90;;;2.00;;
41755;SDS011;27435;48.480;9.258;2022-11-20T02:29:22;9.73;;;3.13;;
41755;SDS011;27435;48.480;9.258;2022-11-20T02:31:55;4.27;;;1.77;;
41755;SDS011;27435;48.480;9.258;2022-11-20T02:34:23;4.33;;;1.77;;
41755;SDS011;27435;48.480;9.258;2022-11-20T02:36:49;4.33;;;1.80;;
41755;SDS011;27435;48.480;9.258;2022-11-20T02:39:16;2.70;;;1.50;;
41755;SDS011;27435;48.480;9.258;2022-11-20T02:41:44;4.87;;;2.13;;
41755;SDS011;27435;48.480;9.258;2022-11-20T02:44:09;3.37;;;1.63;;
41755;SDS011;27435;48.480;9.258;2022-11-20T02:46:35;6.20;;;1.37;;
41755;SDS011;27435;48.480;9.258;2022-11-20T02:49:02;4.53;;;1.67;;
41755;SDS011;27435;48.480;9.258;2022-11-20T02:51:28;2.20;;;1.40;;
41755;SDS011;27435;48.480;9.258;2022-11-20T02:53:54;2.97;;;1.63;;
41755;SDS011;27435;48.480;9.258;2022-11-20T02:56:19;2.87;;;1.43;;
41755;SDS011;27435;48.480;9.258;2022-11-20T02:58:45;4.33;;;1.73;;
41755;SDS011;27435;48.480;9.258;2022-11-20T03:01:11;2.47;;;1.20;;
41755;SDS011;27435;48.480;9.258;2022-11-20T03:03:37;4.20;;;1.53;;
41755;SDS011;27435;48.480;9.258;2022-11-20T03:06:02;2.90;;;1.43;;
41755;SDS011;27435;48.480;9.258;2022-11-20T03:08:28;3.03;;;1.33;;
41755;SDS011;27435;48.480;9.258;2022-11-20T03:10:54;4.60;;;2.30;;
41755;SDS011;27435;48.480;9.258;2022-11-20T03:13:19;3.33;;;1.97;;
41755;SDS011;27435;48.480;9.258;2022-11-20T03:15:45;3.13;;;1.30;;
41755;SDS011;27435;48.480;9.258;2022-11-20T03:18:10;2.80;;;1.60;;
41755;SDS011;27435;48.480;9.258;2022-11-20T03:20:38;2.47;;;1.40;;
41755;SDS011;27435;48.480;9.258;2022-11-20T03:23:04;3.47;;;1.70;;
41755;SDS011;27435;48.480;9.258;2022-11-20T03:25:29;4.63;;;1.37;;
41755;SDS011;27435;48.480;9.258;2022-11-20T03:27:55;3.50;;;1.60;;
41755;SDS011;27435;48.480;9.258;2022-11-20T03:30:21;3.73;;;1.40;;
41755;SDS011;27435;48.480;9.258;2022-11-20T03:32:46;3.70;;;1.60;;
41755;SDS011;27435;48.480;9.258;2022-11-20T03:35:12;2.83;;;1.70;;
41755;SDS011;27435;48.480;9.258;2022-11-20T03:37:38;2.90;;;1.50;;
41755;SDS011;27435;48.480;9.258;2022-11-20T03:40:03;3.23;;;1.80;;
41755;SDS011;27435;48.480;9.258;2022-11-20T03:42:30;2.67;;;1.57;;
41755;SDS011;27435;48.480;9.258;2022-11-20T03:45:11;2.60;;;1.40;;
41755;SDS011;27435;48.480;9.258;2022-11-20T03:47:38;3.37;;;1.47;;
41755;SDS011;27435;48.480;9.258;2022-11-20T03:50:04;3.57;;;1.23;;
41755;SDS011;27435;48.480;9.258;2022-11-20T03:52:30;2.23;;;1.23;;
41755;SDS011;27435;48.480;9.258;2022-11-20T03:54:55;3.13;;;1.37;;
41755;SDS011;27435;48.480;9.258;2022-11-20T03:57:21;2.77;;;1.70;;
41755;SDS011;27435;48.480;9.258;2022-11-20T03:59:47;2.57;;;1.30;;
41755;SDS011;27435;48.480;9.258;2022-11-20T04:02:12;3.43;;;1.43;;
41755;SDS011;27435;48.480;9.258;2022-11-20T04:04:38;2.53;;;1.37;;
41755;SDS011;27435;48.480;9.258;2022-11-20T04:07:03;4.63;;;1.50;;
41755;SDS011;27435;48.480;9.258;2022-11-20T04:09:29;4.67;;;1.50;;
41755;SDS011;27435;48.480;9.258;2022-11-20T04:11:55;3.80;;;1.80;;
41755;SDS011;27435;48.480;9.258;2022-11-20T04:14:20;3.87;;;1.43;;
41755;SDS011;27435;48.480;9.258;2022-11-20T04:16:46;3.33;;;1.57;;
41755;SDS011;27435;48.480;9.258;2022-11-20T04:19:13;2.73;;;1.43;;
41755;SDS011;27435;48.480;9.258;2022-11-20T04:21:40;4.37;;;1.47;;
41755;SDS011;27435;48.480;9.258;2022-11-20T04:24:06;2.93;;;1.40;;
41755;SDS011;27435;48.480;9.258;2022-11-20T04:26:33;3.63;;;1.50;;
41755;SDS011;27435;48.480;9.258;2022-11-20T04:28:59;2.60;;;1.40;;
41755;SDS011;27435;48.480;9.258;2022-11-20T04:31:30;4.37;;;1.70;;
41755;SDS011;27435;48.480;9.258;2022-11-20T04:33:59;2.37;;;1.60;;
41755;SDS011;27435;48.480;9.258;2022-11-20T04:36:29;2.90;;;1.50;;
41755;SDS011;27435;48.480;9.258;2022-11-20T04:38:56;3.73;;;1.50;;
41755;SDS011;27435;48.480;9.258;2022-11-20T04:41:28;5.43;;;1.90;;
41755;SDS011;27435;48.480;9.258;2022-11-20T04:43:55;3.40;;;1.40;;
41755;SDS011;27435;48.480;9.258;2022-11-20T04:46:24;2.73;;;1.30;;
41755;SDS011;27435;48.480;9.258;2022-11-20T04:48:51;2.03;;;1.23;;
41755;SDS011;27435;48.480;9.258;2022-11-20T04:51:16;5.23;;;1.13;;
41755;SDS011;27435;48.480;9.258;2022-11-20T04:53:42;2.07;;;1.10;;
41755;SDS011;27435;48.480;9.258;2022-11-20T04:56:08;3.83;;;0.70;;
41755;SDS011;27435;48.480;9.258;2022-11-20T04:58:36;4.73;;;1.20;;
41755;SDS011;27435;48.480;9.258;2022-11-20T05:03:29;3.60;;;1.30;;
41755;SDS011;27435;48.480;9.258;2022-11-20T05:05:55;3.87;;;0.97;;
41755;SDS011;27435;48.480;9.258;2022-11-20T05:08:21;2.10;;;0.90;;
41755;SDS011;27435;48.480;9.258;2022-11-20T05:10:47;4.13;;;1.93;;
41755;SDS011;27435;48.480;9.258;2022-11-20T05:13:12;2.30;;;1.30;;
41755;SDS011;27435;48.480;9.258;2022-11-20T05:15:38;2.90;;;1.20;;
41755;SDS011;27435;48.480;9.258;2022-11-20T05:18:04;4.53;;;1.10;;
41755;SDS011;27435;48.480;9.258;2022-11-20T05:20:29;2.53;;;1.00;;
41755;SDS011;27435;48.480;9.258;2022-11-20T05:22:58;2.00;;;1.00;;
41755;SDS011;27435;48.480;9.258;2022-11-20T05:25:23;4.10;;;1.10;;
41755;SDS011;27435;48.480;9.258;2022-11-20T05:27:49;1.63;;;0.80;;
41755;SDS011;27435;48.480;9.258;2022-11-20T05:30:15;2.73;;;1.20;;
41755;SDS011;27435;48.480;9.258;2022-11-20T05:32:40;2.57;;;0.83;;
41755;SDS011;27435;48.480;9.258;2022-11-20T05:35:06;2.13;;;1.00;;
41755;SDS011;27435;48.480;9.258;2022-11-20T05:37:32;2.40;;;0.77;;
41755;SDS011;27435;48.480;9.258;2022-11-20T05:39:58;1.73;;;0.90;;
41755;SDS011;27435;48.480;9.258;2022-11-20T05:42:23;2.00;;;0.93;;
41755;SDS011;27435;48.480;9.258;2022-11-20T05:44:55;2.40;;;1.10;;
41755;SDS011;27435;48.480;9.258;2022-11-20T05:47:25;2.73;;;1.07;;
41755;SDS011;27435;48.480;9.258;2022-11-20T05:49:52;1.87;;;1.03;;
41755;SDS011;27435;48.480;9.258;2022-11-20T05:52:17;1.37;;;0.70;;
41755;SDS011;27435;48.480;9.258;2022-11-20T05:54:43;2.40;;;1.33;;
41755;SDS011;27435;48.480;9.258;2022-11-20T05:57:08;1.77;;;0.87;;
41755;SDS011;27435;48.480;9.258;2022-11-20T05:59:34;2.40;;;1.07;;
41755;SDS011;27435;48.480;9.258;2022-11-20T06:02:00;3.20;;;0.80;;
41755;SDS011;27435;48.480;9.258;2022-11-20T06:04:25;2.10;;;0.90;;
41755;SDS011;27435;48.480;9.258;2022-11-20T06:06:51;1.70;;;0.93;;
41755;SDS011;27435;48.480;9.258;2022-11-20T06:09:16;2.80;;;1.20;;
41755;SDS011;27435;48.480;9.258;2022-11-20T06:11:42;2.80;;;1.03;;
41755;SDS011;27435;48.480;9.258;2022-11-20T06:14:08;4.07;;;1.27;;
41755;SDS011;27435;48.480;9.258;2022-11-20T06:16:33;4.27;;;1.30;;
41755;SDS011;27435;48.480;9.258;2022-11-20T06:18:59;2.43;;;1.17;;
41755;SDS011;27435;48.480;9.258;2022-11-20T06:21:24;5.07;;;1.17;;
41755;SDS011;27435;48.480;9.258;2022-11-20T06:23:51;3.23;;;1.20;;
41755;SDS011;27435;48.480;9.258;2022-11-20T06:26:21;1.83;;;0.97;;
41755;SDS011;27435;48.480;9.258;2022-11-20T06:28:48;2.60;;;1.20;;
41755;SDS011;27435;48.480;9.258;2022-11-20T06:31:16;2.70;;;1.23;;
41755;SDS011;27435;48.480;9.258;2022-11-20T06:33:44;3.43;;;1.23;;
41755;SDS011;27435;48.480;9.258;2022-11-20T06:36:10;3.43;;;1.40;;
41755;SDS011;27435;48.480;9.258;2022-11-20T06:38:38;2.83;;;1.20;;
41755;SDS011;27435;48.480;9.258;2022-11-20T06:41:05;2.33;;;1.13;;
41755;SDS011;27435;48.480;9.258;2022-11-20T06:43:31;2.13;;;0.90;;
41755;SDS011;27435;48.480;9.258;2022-11-20T06:45:57;2.43;;;1.20;;
41755;SDS011;27435;48.480;9.258;2022-11-20T06:48:24;4.10;;;1.60;;
41755;SDS011;27435;48.480;9.258;2022-11-20T06:50:53;2.70;;;1.40;;
41755;SDS011;27435;48.480;9.258;2022-11-20T06:53:19;2.57;;;1.10;;
41755;SDS011;27435;48.480;9.258;2022-11-20T06:55:45;1.60;;;0.97;;
41755;SDS011;27435;48.480;9.258;2022-11-20T06:58:12;2.93;;;1.40;;
41755;SDS011;27435;48.480;9.258;2022-11-20T07:00:39;3.40;;;1.20;;
41755;SDS011;27435;48.480;9.258;2022-11-20T07:03:05;2.63;;;1.13;;
41755;SDS011;27435;48.480;9.258;2022-11-20T07:05:33;3.87;;;1.17;;
41755;SDS011;27435;48.480;9.258;2022-11-20T07:07:59;2.53;;;1.20;;
41755;SDS011;27435;48.480;9.258;2022-11-20T07:10:25;1.50;;;0.90;;
41755;SDS011;27435;48.480;9.258;2022-11-20T07:12:51;2.60;;;0.97;;
41755;SDS011;27435;48.480;9.258;2022-11-20T07:15:18;3.30;;;1.00;;
41755;SDS011;27435;48.480;9.258;2022-11-20T07:17:45;2.70;;;1.17;;
41755;SDS011;27435;48.480;9.258;2022-11-20T07:20:11;1.83;;;0.90;;
41755;SDS011;27435;48.480;9.258;2022-11-20T07:22:37;2.20;;;1.00;;
41755;SDS011;27435;48.480;9.258;2022-11-20T07:25:03;2.13;;;1.00;;
41755;SDS011;27435;48.480;9.258;2022-11-20T07:27:29;2.40;;;1.00;;
41755;SDS011;27435;48.480;9.258;2022-11-20T07:29:55;3.30;;;1.00;;
41755;SDS011;27435;48.480;9.258;2022-11-20T07:32:21;3.13;;;1.13;;
41755;SDS011;27435;48.480;9.258;2022-11-20T07:34:47;1.80;;;0.80;;
41755;SDS011;27435;48.480;9.258;2022-11-20T07:37:13;2.17;;;0.80;;
41755;SDS011;27435;48.480;9.258;2022-11-20T07:39:39;1.73;;;0.90;;
41755;SDS011;27435;48.480;9.258;2022-11-20T07:42:08;1.40;;;0.70;;
41755;SDS011;27435;48.480;9.258;2022-11-20T07:44:34;3.27;;;1.10;;
41755;SDS011;27435;48.480;9.258;2022-11-20T07:47:00;1.93;;;0.90;;
41755;SDS011;27435;48.480;9.258;2022-11-20T07:49:26;1.37;;;0.60;;
41755;SDS011;27435;48.480;9.258;2022-11-20T07:51:52;1.97;;;0.90;;
41755;SDS011;27435;48.480;9.258;2022-11-20T07:54:19;3.13;;;0.90;;
41755;SDS011;27435;48.480;9.258;2022-11-20T07:56:45;2.90;;;0.80;;
41755;SDS011;27435;48.480;9.258;2022-11-20T07:59:11;2.23;;;0.90;;
41755;SDS011;27435;48.480;9.258;2022-11-20T08:01:37;2.17;;;1.00;;
41755;SDS011;27435;48.480;9.258;2022-11-20T08:04:03;1.93;;;0.73;;
41755;SDS011;27435;48.480;9.258;2022-11-20T08:06:29;1.53;;;0.90;;
41755;SDS011;27435;48.480;9.258;2022-11-20T08:08:54;1.53;;;0.70;;
41755;SDS011;27435;48.480;9.258;2022-11-20T08:11:20;2.67;;;0.80;;
41755;SDS011;27435;48.480;9.258;2022-11-20T08:14:04;1.50;;;0.60;;
41755;SDS011;27435;48.480;9.258;2022-11-20T08:16:44;1.15;;;0.60;;
41755;SDS011;27435;48.480;9.258;2022-11-20T08:19:11;0.90;;;0.53;;
41755;SDS011;27435;48.480;9.258;2022-11-20T08:21:38;2.07;;;0.80;;
41755;SDS011;27435;48.480;9.258;2022-11-20T08:24:04;2.10;;;0.80;;
41755;SDS011;27435;48.480;9.258;2022-11-20T08:26:30;2.90;;;0.70;;
41755;SDS011;27435;48.480;9.258;2022-11-20T08:28:56;0.87;;;0.40;;
41755;SDS011;27435;48.480;9.258;2022-11-20T08:31:22;1.30;;;0.63;;
41755;SDS011;27435;48.480;9.258;2022-11-20T08:33:49;1.43;;;0.53;;
41755;SDS011;27435;48.480;9.258;2022-11-20T08:36:15;3.07;;;0.90;;
41755;SDS011;27435;48.480;9.258;2022-11-20T08:38:41;1.63;;;0.90;;
41755;SDS011;27435;48.480;9.258;2022-11-20T08:41:07;1.67;;;0.70;;
41755;SDS011;27435;48.480;9.258;2022-11-20T08:43:52;1.37;;;0.80;;
41755;SDS011;27435;48.480;9.258;2022-11-20T08:46:19;3.03;;;0.77;;
41755;SDS011;27435;48.480;9.258;2022-11-20T08:48:45;1.90;;;0.90;;
41755;SDS011;27435;48.480;9.258;2022-11-20T08:51:12;1.47;;;0.67;;
41755;SDS011;27435;48.480;9.258;2022-11-20T08:53:38;1.30;;;0.60;;
41755;SDS011;27435;48.480;9.258;2022-11-20T08:56:04;1.83;;;0.70;;
41755;SDS011;27435;48.480;9.258;2022-11-20T08:58:30;0.97;;;0.50;;
41755;SDS011;27435;48.480;9.258;2022-11-20T09:00:56;1.27;;;0.73;;
41755;SDS011;27435;48.480;9.258;2022-11-20T09:03:21;1.83;;;1.13;;
41755;SDS011;27435;48.480;9.258;2022-11-20T09:05:47;1.07;;;0.73;;
41755;SDS011;27435;48.480;9.258;2022-11-20T09:08:13;1.17;;;0.50;;
41755;SDS011;27435;48.480;9.258;2022-11-20T09:10:39;2.00;;;1.20;;
41755;SDS011;27435;48.480;9.258;2022-11-20T09:13:05;1.20;;;0.60;;
41755;SDS011;27435;48.480;9.258;2022-11-20T09:15:31;3.07;;;1.63;;
41755;SDS011;27435;48.480;9.258;2022-11-20T09:17:57;1.20;;;0.60;;
41755;SDS011;27435;48.480;9.258;2022-11-20T09:20:24;1.70;;;0.90;;
41755;SDS011;27435;48.480;9.258;2022-11-20T09:22:51;3.20;;;0.90;;
41755;SDS011;27435;48.480;9.258;2022-11-20T09:25:16;2.23;;;0.80;;
41755;SDS011;27435;48.480;9.258;2022-11-20T09:27:42;2.00;;;0.83;;
41755;SDS011;27435;48.480;9.258;2022-11-20T09:30:10;4.43;;;1.10;;
41755;SDS011;27435;48.480;9.258;2022-11-20T09:32:40;2.27;;;1.10;;
41755;SDS011;27435;48.480;9.258;2022-11-20T09:35:07;1.20;;;0.60;;
41755;SDS011;27435;48.480;9.258;2022-11-20T09:37:33;1.57;;;0.70;;
41755;SDS011;27435;48.480;9.258;2022-11-20T09:39:59;1.77;;;0.60;;
41755;SDS011;27435;48.480;9.258;2022-11-20T09:50:36;2.53;;;1.00;;
41755;SDS011;27435;48.480;9.258;2022-11-20T09:55:51;1.60;;;0.87;;
41755;SDS011;27435;48.480;9.258;2022-11-20T10:01:12;1.27;;;0.60;;
41755;SDS011;27435;48.480;9.258;2022-11-20T10:06:30;1.67;;;0.80;;
41755;SDS011;27435;48.480;9.258;2022-11-20T10:11:34;5.90;;;0.90;;
41755;SDS011;27435;48.480;9.258;2022-11-20T10:22:47;1.10;;;0.60;;
41755;SDS011;27435;48.480;9.258;2022-11-20T10:25:20;1.73;;;0.77;;
41755;SDS011;27435;48.480;9.258;2022-11-20T10:30:37;1.83;;;0.60;;
41755;SDS011;27435;48.480;9.258;2022-11-20T10:33:17;1.57;;;0.77;;
41755;SDS011;27435;48.480;9.258;2022-11-20T10:35:58;1.10;;;0.60;;
41755;SDS011;27435;48.480;9.258;2022-11-20T10:38:50;1.43;;;0.90;;
41755;SDS011;27435;48.480;9.258;2022-11-20T10:41:29;3.73;;;1.13;;
41755;SDS011;27435;48.480;9.258;2022-11-20T10:46:35;2.50;;;1.00;;
41755;SDS011;27435;48.480;9.258;2022-11-20T10:49:15;1.95;;;0.80;;
41755;SDS011;27435;48.480;9.258;2022-11-20T10:57:14;3.13;;;1.00;;
41755;SDS011;27435;48.480;9.258;2022-11-20T11:00:06;1.63;;;0.97;;
41755;SDS011;27435;48.480;9.258;2022-11-20T11:02:37;1.60;;;0.87;;
41755;SDS011;27435;48.480;9.258;2022-11-20T11:05:10;1.50;;;0.70;;
41755;SDS011;27435;48.480;9.258;2022-11-20T11:07:44;3.07;;;0.70;;
41755;SDS011;27435;48.480;9.258;2022-11-20T11:13:06;5.47;;;2.47;;
41755;SDS011;27435;48.480;9.258;2022-11-20T11:15:36;7.67;;;2.87;;
41755;SDS011;27435;48.480;9.258;2022-11-20T11:18:04;7.27;;;2.70;;
41755;SDS011;27435;48.480;9.258;2022-11-20T11:20:29;3.37;;;0.93;;
41755;SDS011;27435;48.480;9.258;2022-11-20T11:22:57;3.07;;;0.87;;
41755;SDS011;27435;48.480;9.258;2022-11-20T11:25:28;2.83;;;1.30;;
41755;SDS011;27435;48.480;9.258;2022-11-20T11:27:58;2.47;;;1.10;;
41755;SDS011;27435;48.480;9.258;2022-11-20T11:30:27;2.23;;;0.77;;
41755;SDS011;27435;48.480;9.258;2022-11-20T11:36:02;2.33;;;1.07;;
41755;SDS011;27435;48.480;9.258;2022-11-20T11:41:07;4.40;;;1.23;;
41755;SDS011;27435;48.480;9.258;2022-11-20T11:43:37;2.30;;;1.07;;
41755;SDS011;27435;48.480;9.258;2022-11-20T11:49:00;3.30;;;1.00;;
41755;SDS011;27435;48.480;9.258;2022-11-20T11:54:24;2.80;;;0.60;;
41755;SDS011;27435;48.480;9.258;2022-11-20T11:56:54;2.17;;;0.87;;
41755;SDS011;27435;48.480;9.258;2022-11-20T11:59:29;1.27;;;0.70;;
41755;SDS011;27435;48.480;9.258;2022-11-20T12:02:15;2.00;;;0.90;;
41755;SDS011;27435;48.480;9.258;2022-11-20T12:04:50;1.23;;;0.60;;
41755;SDS011;27435;48.480;9.258;2022-11-20T12:07:28;1.60;;;0.80;;
41755;SDS011;27435;48.480;9.258;2022-11-20T12:10:08;5.90;;;1.77;;
41755;SDS011;27435;48.480;9.258;2022-11-20T12:15:16;2.33;;;0.93;;
41755;SDS011;27435;48.480;9.258;2022-11-20T12:17:48;1.75;;;0.82;;
41755;SDS011;27435;48.480;9.258;2022-11-20T12:20:20;4.33;;;1.00;;
41755;SDS011;27435;48.480;9.258;2022-11-20T12:25:43;2.00;;;0.83;;
41755;SDS011;27435;48.480;9.258;2022-11-20T12:31:14;2.37;;;1.00;;
41755;SDS011;27435;48.480;9.258;2022-11-20T12:55:52;5.97;;;2.10;;
41755;SDS011;27435;48.480;9.258;2022-11-20T13:01:11;3.60;;;1.60;;
41755;SDS011;27435;48.480;9.258;2022-11-20T13:06:58;2.30;;;1.30;;
41755;SDS011;27435;48.480;9.258;2022-11-20T13:09:25;2.63;;;1.20;;
41755;SDS011;27435;48.480;9.258;2022-11-20T13:12:02;2.50;;;1.10;;
41755;SDS011;27435;48.480;9.258;2022-11-20T13:14:50;6.20;;;2.53;;
41755;SDS011;27435;48.480;9.258;2022-11-20T13:20:17;6.93;;;2.30;;
41755;SDS011;27435;48.480;9.258;2022-11-20T13:22:51;2.20;;;1.13;;
41755;SDS011;27435;48.480;9.258;2022-11-20T13:25:22;3.63;;;1.23;;
41755;SDS011;27435;48.480;9.258;2022-11-20T13:27:49;3.07;;;1.40;;
41755;SDS011;27435;48.480;9.258;2022-11-20T13:30:16;9.30;;;2.70;;
41755;SDS011;27435;48.480;9.258;2022-11-20T13:32:53;8.10;;;3.30;;
41755;SDS011;27435;48.480;9.258;2022-11-20T13:35:32;4.20;;;1.20;;
41755;SDS011;27435;48.480;9.258;2022-11-20T13:38:10;5.97;;;2.00;;
41755;SDS011;27435;48.480;9.258;2022-11-20T13:40:59;3.83;;;1.57;;
41755;SDS011;27435;48.480;9.258;2022-11-20T13:43:46;5.47;;;2.20;;
41755;SDS011;27435;48.480;9.258;2022-11-20T13:46:12;4.13;;;1.90;;
41755;SDS011;27435;48.480;9.258;2022-11-20T13:48:42;3.07;;;1.23;;
41755;SDS011;27435;48.480;9.258;2022-11-20T14:02:12;5.33;;;2.20;;
41755;SDS011;27435;48.480;9.258;2022-11-20T14:04:43;6.13;;;2.10;;
41755;SDS011;27435;48.480;9.258;2022-11-20T14:07:12;5.67;;;2.00;;
41755;SDS011;27435;48.480;9.258;2022-11-20T14:09:38;4.87;;;1.83;;
41755;SDS011;27435;48.480;9.258;2022-11-20T14:12:12;4.77;;;1.60;;
41755;SDS011;27435;48.480;9.258;2022-11-20T14:14:47;6.07;;;1.73;;
41755;SDS011;27435;48.480;9.258;2022-11-20T14:17:19;5.67;;;2.13;;
41755;SDS011;27435;48.480;9.258;2022-11-20T14:19:47;4.77;;;2.07;;
41755;SDS011;27435;48.480;9.258;2022-11-20T14:22:18;2.90;;;0.90;;
41755;SDS011;27435;48.480;9.258;2022-11-20T14:24:49;5.00;;;0.97;;
41755;SDS011;27435;48.480;9.258;2022-11-20T14:27:27;3.37;;;1.20;;
41755;SDS011;27435;48.480;9.258;2022-11-20T14:29:53;4.10;;;1.43;;
41755;SDS011;27435;48.480;9.258;2022-11-20T14:32:19;2.67;;;1.30;;
41755;SDS011;27435;48.480;9.258;2022-11-20T14:34:48;3.73;;;1.40;;
41755;SDS011;27435;48.480;9.258;2022-11-20T14:37:23;4.07;;;1.50;;
41755;SDS011;27435;48.480;9.258;2022-11-20T14:42:21;1.60;;;0.93;;
41755;SDS011;27435;48.480;9.258;2022-11-20T14:44:49;1.43;;;0.80;;
41755;SDS011;27435;48.480;9.258;2022-11-20T14:47:20;2.30;;;0.80;;
41755;SDS011;27435;48.480;9.258;2022-11-20T14:49:49;2.43;;;1.30;;
41755;SDS011;27435;48.480;9.258;2022-11-20T14:52:21;8.33;;;2.80;;
41755;SDS011;27435;48.480;9.258;2022-11-20T14:54:49;5.90;;;2.07;;
41755;SDS011;27435;48.480;9.258;2022-11-20T14:57:32;3.97;;;2.20;;
41755;SDS011;27435;48.480;9.258;2022-11-20T15:02:39;6.93;;;3.40;;
41755;SDS011;27435;48.480;9.258;2022-11-20T15:05:12;8.80;;;3.13;;
41755;SDS011;27435;48.480;9.258;2022-11-20T15:07:40;8.67;;;2.70;;
41755;SDS011;27435;48.480;9.258;2022-11-20T15:10:20;7.63;;;3.77;;
41755;SDS011;27435;48.480;9.258;2022-11-20T15:12:51;7.63;;;2.40;;
41755;SDS011;27435;48.480;9.258;2022-11-20T15:15:21;7.63;;;3.40;;
41755;SDS011;27435;48.480;9.258;2022-11-20T15:17:58;4.63;;;2.40;;
41755;SDS011;27435;48.480;9.258;2022-11-20T15:20:26;4.60;;;2.53;;
41755;SDS011;27435;48.480;9.258;2022-11-20T15:22:54;4.10;;;1.90;;
41755;SDS011;27435;48.480;9.258;2022-11-20T15:25:20;2.77;;;1.57;;
41755;SDS011;27435;48.480;9.258;2022-11-20T15:27:46;3.33;;;1.40;;
41755;SDS011;27435;48.480;9.258;2022-11-20T15:30:19;4.53;;;1.57;;
41755;SDS011;27435;48.480;9.258;2022-11-20T15:32:46;4.73;;;2.23;;
41755;SDS011;27435;48.480;9.258;2022-11-20T15:35:15;2.97;;;1.03;;
41755;SDS011;27435;48.480;9.258;2022-11-20T15:37:41;2.53;;;1.00;;
41755;SDS011;27435;48.480;9.258;2022-11-20T15:40:07;2.47;;;1.00;;
41755;SDS011;27435;48.480;9.258;2022-11-20T15:42:33;1.33;;;0.57;;
41755;SDS011;27435;48.480;9.258;2022-11-20T15:45:00;5.30;;;2.40;;
41755;SDS011;27435;48.480;9.258;2022-11-20T15:47:29;5.53;;;2.33;;
